Stoystown, PA (15563)

9:48 PM EDT on September 03, 2015 (GMT -0400)
Ashtola | | Change Station
CLOSE
Current Station
Personal Weather Station
Location: Windber, PA
Elevation: 2085 ft
Nearby Weather Stations

Elev 2085 ft 40.20 °N, 78.80 °W | Updated 4 minutes ago

Partly Cloudy
Partly Cloudy
67.0 °F
Feels Like 67.0 °F
N
0.0
Wind Variable Wind from NW
Gusts 0.0 mph

Today
High -- | Low -- °F
--% Chance of Precip.
Yesterday
High -- | Low -- °F
Precip. -- in
6:44 AM 7:44 PM
Waning Gibbous, 65% visible
Pressure 29.99 in
Visibility 8.0 miles
Clouds Clear
Dew Point 66 °F
Humidity 97%
Rainfall 0.00 in
Snow Depth Not available.
UV 0 out of 12
Pollen 10.00 out of 12
Air Quality Not available.
Flu Activity Not available.
METAR KJST 040054Z AUTO 33006KT 8SM CLR 24/18 A3003 RMK AO2 SLP153 T02390183
Pressure 29.99 in
Visibility 8.0 miles
Clouds Clear
Dew Point 66 °F
Humidity 97%
Rainfall 0.00 in
Snow Depth Not available.
UV 0 out of 12
Pollen 10.00 out of 12
Air Quality Not available.
Flu Activity Not available.
METAR KJST 040054Z AUTO 33006KT 8SM CLR 24/18 A3003 RMK AO2 SLP153 T02390183

10-Day Weather Forecast

×

Almanac

Astronomy

Sep. 03, 2015 Rise Set
Actual Time
Civil Twilight
Nautical Twilight
Astronomical Twilight
Moon
Length of Visible Light
Length of Day
Tomorrow will be .
, % of the Moon is Illuminated

Today's Extremes

State Highs State Lows

Community

WunderPhotos

Upload Photos

1,852,088 photos uploaded!

WunderBlogs® & News

Nearby

Air Quality

  Air Quality AQ Index Pollutant
Not available.

Snow Depth

Station Depth Elevation

Earthquake Activity

City Distance Mag. Time & Date
Minimum magnitude displayed is 2.5.

Coastal Water Temperatures

Place Temperature

Stations

Nearby Weather Stations

Station Location Temp. Windchill Dew Point Humidity Wind Precip. Elev Updated Type